sensor_id;sensor_type;location;lat;lon;timestamp;P1;durP1;ratioP1;P2;durP2;ratioP2
35917;SDS011;22011;59.912;30.300;2023-01-26T00:01:06;2.38;;;1.95;;
35917;SDS011;22011;59.912;30.300;2023-01-26T00:03:35;3.00;;;2.20;;
35917;SDS011;22011;59.912;30.300;2023-01-26T00:06:03;4.65;;;2.40;;
35917;SDS011;22011;59.912;30.300;2023-01-26T00:08:35;3.05;;;1.60;;
35917;SDS011;22011;59.912;30.300;2023-01-26T00:11:03;3.33;;;1.83;;
35917;SDS011;22011;59.912;30.300;2023-01-26T00:13:32;3.42;;;1.83;;
35917;SDS011;22011;59.912;30.300;2023-01-26T00:16:00;5.70;;;2.85;;
35917;SDS011;22011;59.912;30.300;2023-01-26T00:18:28;3.63;;;2.53;;
35917;SDS011;22011;59.912;30.300;2023-01-26T00:20:56;1.73;;;1.42;;
35917;SDS011;22011;59.912;30.300;2023-01-26T00:23:24;1.92;;;1.70;;
35917;SDS011;22011;59.912;30.300;2023-01-26T00:25:53;2.92;;;1.45;;
35917;SDS011;22011;59.912;30.300;2023-01-26T00:28:21;2.97;;;1.50;;
35917;SDS011;22011;59.912;30.300;2023-01-26T00:30:48;3.70;;;2.17;;
35917;SDS011;22011;59.912;30.300;2023-01-26T00:33:16;2.45;;;1.92;;
35917;SDS011;22011;59.912;30.300;2023-01-26T00:35:43;2.55;;;1.83;;
35917;SDS011;22011;59.912;30.300;2023-01-26T00:38:19;4.53;;;1.90;;
35917;SDS011;22011;59.912;30.300;2023-01-26T00:40:47;2.58;;;1.98;;
35917;SDS011;22011;59.912;30.300;2023-01-26T00:43:16;5.13;;;1.52;;
35917;SDS011;22011;59.912;30.300;2023-01-26T00:45:43;2.30;;;1.52;;
35917;SDS011;22011;59.912;30.300;2023-01-26T00:48:11;1.98;;;1.45;;
35917;SDS011;22011;59.912;30.300;2023-01-26T00:50:39;3.40;;;1.50;;
35917;SDS011;22011;59.912;30.300;2023-01-26T00:53:08;3.57;;;1.60;;
35917;SDS011;22011;59.912;30.300;2023-01-26T00:55:36;2.45;;;1.58;;
35917;SDS011;22011;59.912;30.300;2023-01-26T00:58:06;1.95;;;1.60;;
35917;SDS011;22011;59.912;30.300;2023-01-26T01:00:37;3.70;;;1.77;;
35917;SDS011;22011;59.912;30.300;2023-01-26T01:03:05;2.55;;;1.80;;
35917;SDS011;22011;59.912;30.300;2023-01-26T01:05:32;3.15;;;2.05;;
35917;SDS011;22011;59.912;30.300;2023-01-26T01:08:00;3.78;;;2.70;;
35917;SDS011;22011;59.912;30.300;2023-01-26T01:10:28;2.42;;;1.80;;
35917;SDS011;22011;59.912;30.300;2023-01-26T01:12:55;3.50;;;1.80;;
35917;SDS011;22011;59.912;30.300;2023-01-26T01:15:23;3.80;;;1.60;;
35917;SDS011;22011;59.912;30.300;2023-01-26T01:17:52;2.50;;;1.73;;
35917;SDS011;22011;59.912;30.300;2023-01-26T01:20:20;2.17;;;1.65;;
35917;SDS011;22011;59.912;30.300;2023-01-26T01:22:47;4.63;;;2.00;;
35917;SDS011;22011;59.912;30.300;2023-01-26T01:25:17;3.53;;;1.75;;
35917;SDS011;22011;59.912;30.300;2023-01-26T01:27:44;3.22;;;1.92;;
35917;SDS011;22011;59.912;30.300;2023-01-26T01:30:12;3.25;;;1.70;;
35917;SDS011;22011;59.912;30.300;2023-01-26T01:32:40;4.05;;;1.88;;
35917;SDS011;22011;59.912;30.300;2023-01-26T01:35:09;3.40;;;1.83;;
35917;SDS011;22011;59.912;30.300;2023-01-26T01:37:36;3.63;;;1.60;;
35917;SDS011;22011;59.912;30.300;2023-01-26T01:40:04;2.55;;;1.90;;
35917;SDS011;22011;59.912;30.300;2023-01-26T01:42:33;3.35;;;1.85;;
35917;SDS011;22011;59.912;30.300;2023-01-26T01:48:05;2.58;;;1.80;;
35917;SDS011;22011;59.912;30.300;2023-01-26T01:50:39;2.50;;;1.77;;
35917;SDS011;22011;59.912;30.300;2023-01-26T01:53:07;3.28;;;1.80;;
35917;SDS011;22011;59.912;30.300;2023-01-26T01:55:39;2.28;;;1.95;;
35917;SDS011;22011;59.912;30.300;2023-01-26T01:58:07;2.92;;;1.92;;
35917;SDS011;22011;59.912;30.300;2023-01-26T02:00:35;4.43;;;2.08;;
35917;SDS011;22011;59.912;30.300;2023-01-26T02:03:03;2.47;;;1.60;;
35917;SDS011;22011;59.912;30.300;2023-01-26T02:05:43;3.65;;;1.95;;
35917;SDS011;22011;59.912;30.300;2023-01-26T02:08:18;3.42;;;2.00;;
35917;SDS011;22011;59.912;30.300;2023-01-26T02:10:48;3.72;;;2.10;;
35917;SDS011;22011;59.912;30.300;2023-01-26T02:13:18;3.28;;;2.17;;
35917;SDS011;22011;59.912;30.300;2023-01-26T02:15:48;3.78;;;2.58;;
35917;SDS011;22011;59.912;30.300;2023-01-26T02:18:16;6.82;;;2.30;;
35917;SDS011;22011;59.912;30.300;2023-01-26T02:20:46;2.90;;;2.00;;
35917;SDS011;22011;59.912;30.300;2023-01-26T02:23:19;5.07;;;2.00;;
35917;SDS011;22011;59.912;30.300;2023-01-26T02:28:41;5.65;;;2.55;;
35917;SDS011;22011;59.912;30.300;2023-01-26T02:31:11;6.25;;;1.77;;
35917;SDS011;22011;59.912;30.300;2023-01-26T02:33:40;2.95;;;1.75;;
35917;SDS011;22011;59.912;30.300;2023-01-26T02:36:10;2.63;;;1.60;;
35917;SDS011;22011;59.912;30.300;2023-01-26T02:38:47;3.78;;;2.13;;
35917;SDS011;22011;59.912;30.300;2023-01-26T02:41:21;2.88;;;2.20;;
35917;SDS011;22011;59.912;30.300;2023-01-26T02:44:07;2.70;;;1.80;;
35917;SDS011;22011;59.912;30.300;2023-01-26T02:46:38;2.03;;;1.83;;
35917;SDS011;22011;59.912;30.300;2023-01-26T02:49:06;3.78;;;1.98;;
35917;SDS011;22011;59.912;30.300;2023-01-26T02:51:51;6.50;;;2.40;;
35917;SDS011;22011;59.912;30.300;2023-01-26T02:54:20;5.63;;;2.00;;
35917;SDS011;22011;59.912;30.300;2023-01-26T02:57:07;3.55;;;1.92;;
35917;SDS011;22011;59.912;30.300;2023-01-26T02:59:34;4.85;;;2.13;;
35917;SDS011;22011;59.912;30.300;2023-01-26T03:02:02;2.65;;;1.65;;
35917;SDS011;22011;59.912;30.300;2023-01-26T03:04:29;3.70;;;2.20;;
35917;SDS011;22011;59.912;30.300;2023-01-26T03:06:57;3.85;;;2.70;;
35917;SDS011;22011;59.912;30.300;2023-01-26T03:09:24;4.57;;;1.80;;
35917;SDS011;22011;59.912;30.300;2023-01-26T03:11:52;3.00;;;2.10;;
35917;SDS011;22011;59.912;30.300;2023-01-26T03:14:21;4.20;;;2.35;;
35917;SDS011;22011;59.912;30.300;2023-01-26T03:16:48;5.25;;;1.95;;
35917;SDS011;22011;59.912;30.300;2023-01-26T03:19:16;3.45;;;2.33;;
35917;SDS011;22011;59.912;30.300;2023-01-26T03:22:07;3.35;;;2.10;;
35917;SDS011;22011;59.912;30.300;2023-01-26T03:24:53;4.95;;;2.00;;
35917;SDS011;22011;59.912;30.300;2023-01-26T03:27:39;3.97;;;2.33;;
35917;SDS011;22011;59.912;30.300;2023-01-26T03:30:10;2.67;;;1.77;;
35917;SDS011;22011;59.912;30.300;2023-01-26T03:32:39;4.18;;;2.00;;
35917;SDS011;22011;59.912;30.300;2023-01-26T03:35:13;3.53;;;1.90;;
35917;SDS011;22011;59.912;30.300;2023-01-26T03:37:47;4.78;;;1.92;;
35917;SDS011;22011;59.912;30.300;2023-01-26T03:40:28;3.03;;;1.90;;
35917;SDS011;22011;59.912;30.300;2023-01-26T03:43:13;2.22;;;1.70;;
35917;SDS011;22011;59.912;30.300;2023-01-26T03:46:00;2.83;;;1.77;;
35917;SDS011;22011;59.912;30.300;2023-01-26T03:48:46;2.83;;;1.70;;
35917;SDS011;22011;59.912;30.300;2023-01-26T03:51:31;3.08;;;1.58;;
35917;SDS011;22011;59.912;30.300;2023-01-26T03:54:16;3.47;;;1.48;;
35917;SDS011;22011;59.912;30.300;2023-01-26T03:57:02;2.03;;;1.50;;
35917;SDS011;22011;59.912;30.300;2023-01-26T03:59:29;2.40;;;1.70;;
35917;SDS011;22011;59.912;30.300;2023-01-26T04:02:09;3.55;;;1.83;;
35917;SDS011;22011;59.912;30.300;2023-01-26T04:04:55;2.17;;;1.52;;
35917;SDS011;22011;59.912;30.300;2023-01-26T04:07:45;2.88;;;1.98;;
35917;SDS011;22011;59.912;30.300;2023-01-26T04:10:29;3.65;;;1.77;;
35917;SDS011;22011;59.912;30.300;2023-01-26T04:12:59;2.92;;;1.80;;
35917;SDS011;22011;59.912;30.300;2023-01-26T04:15:49;3.75;;;1.73;;
35917;SDS011;22011;59.912;30.300;2023-01-26T04:18:37;3.47;;;1.70;;
35917;SDS011;22011;59.912;30.300;2023-01-26T04:21:22;3.95;;;2.17;;
35917;SDS011;22011;59.912;30.300;2023-01-26T04:23:57;3.08;;;1.88;;
35917;SDS011;22011;59.912;30.300;2023-01-26T04:26:25;3.35;;;1.73;;
35917;SDS011;22011;59.912;30.300;2023-01-26T04:29:00;4.63;;;1.85;;
35917;SDS011;22011;59.912;30.300;2023-01-26T04:31:28;3.75;;;2.22;;
35917;SDS011;22011;59.912;30.300;2023-01-26T04:33:57;2.85;;;1.77;;
35917;SDS011;22011;59.912;30.300;2023-01-26T04:36:25;1.85;;;1.50;;
35917;SDS011;22011;59.912;30.300;2023-01-26T04:38:53;2.10;;;1.67;;
35917;SDS011;22011;59.912;30.300;2023-01-26T04:41:21;1.70;;;1.33;;
35917;SDS011;22011;59.912;30.300;2023-01-26T04:43:58;2.47;;;1.88;;
35917;SDS011;22011;59.912;30.300;2023-01-26T04:46:26;3.92;;;1.85;;
35917;SDS011;22011;59.912;30.300;2023-01-26T04:48:53;2.65;;;1.73;;
35917;SDS011;22011;59.912;30.300;2023-01-26T04:51:23;1.95;;;1.45;;
35917;SDS011;22011;59.912;30.300;2023-01-26T04:53:51;4.00;;;2.17;;
35917;SDS011;22011;59.912;30.300;2023-01-26T04:56:21;4.50;;;1.77;;
35917;SDS011;22011;59.912;30.300;2023-01-26T04:58:51;2.20;;;1.50;;
35917;SDS011;22011;59.912;30.300;2023-01-26T05:01:21;3.03;;;1.60;;
35917;SDS011;22011;59.912;30.300;2023-01-26T05:03:49;4.10;;;1.88;;
35917;SDS011;22011;59.912;30.300;2023-01-26T05:06:17;2.60;;;1.85;;
35917;SDS011;22011;59.912;30.300;2023-01-26T05:11:17;4.80;;;1.67;;
35917;SDS011;22011;59.912;30.300;2023-01-26T05:14:03;8.23;;;3.97;;
35917;SDS011;22011;59.912;30.300;2023-01-26T05:17:03;6.03;;;2.90;;
35917;SDS011;22011;59.912;30.300;2023-01-26T05:19:57;4.10;;;2.17;;
35917;SDS011;22011;59.912;30.300;2023-01-26T05:22:55;4.25;;;2.10;;
35917;SDS011;22011;59.912;30.300;2023-01-26T05:25:26;3.53;;;2.10;;
35917;SDS011;22011;59.912;30.300;2023-01-26T05:28:00;3.50;;;2.17;;
35917;SDS011;22011;59.912;30.300;2023-01-26T05:30:28;6.25;;;4.18;;
35917;SDS011;22011;59.912;30.300;2023-01-26T05:33:00;2.65;;;1.75;;
35917;SDS011;22011;59.912;30.300;2023-01-26T05:35:29;2.70;;;1.65;;
35917;SDS011;22011;59.912;30.300;2023-01-26T05:37:57;2.90;;;2.03;;
35917;SDS011;22011;59.912;30.300;2023-01-26T05:40:28;3.08;;;1.92;;
35917;SDS011;22011;59.912;30.300;2023-01-26T05:42:55;2.75;;;1.73;;
35917;SDS011;22011;59.912;30.300;2023-01-26T05:45:41;4.82;;;2.10;;
35917;SDS011;22011;59.912;30.300;2023-01-26T05:48:11;4.57;;;2.50;;
35917;SDS011;22011;59.912;30.300;2023-01-26T05:50:38;4.97;;;2.50;;
35917;SDS011;22011;59.912;30.300;2023-01-26T05:53:12;6.45;;;2.20;;
35917;SDS011;22011;59.912;30.300;2023-01-26T05:55:41;4.53;;;2.40;;
35917;SDS011;22011;59.912;30.300;2023-01-26T05:58:10;3.65;;;2.58;;
35917;SDS011;22011;59.912;30.300;2023-01-26T06:00:38;5.90;;;2.67;;
35917;SDS011;22011;59.912;30.300;2023-01-26T06:03:11;5.30;;;2.97;;
35917;SDS011;22011;59.912;30.300;2023-01-26T06:05:39;5.38;;;2.63;;
35917;SDS011;22011;59.912;30.300;2023-01-26T06:08:16;5.10;;;2.28;;
35917;SDS011;22011;59.912;30.300;2023-01-26T06:10:58;3.92;;;2.78;;
35917;SDS011;22011;59.912;30.300;2023-01-26T06:13:40;6.55;;;2.38;;
35917;SDS011;22011;59.912;30.300;2023-01-26T06:16:19;5.20;;;2.17;;
35917;SDS011;22011;59.912;30.300;2023-01-26T06:18:48;8.75;;;2.75;;
35917;SDS011;22011;59.912;30.300;2023-01-26T06:21:16;5.15;;;2.47;;
35917;SDS011;22011;59.912;30.300;2023-01-26T06:23:44;4.18;;;3.03;;
35917;SDS011;22011;59.912;30.300;2023-01-26T06:26:14;7.40;;;3.30;;
35917;SDS011;22011;59.912;30.300;2023-01-26T06:28:42;3.37;;;2.70;;
35917;SDS011;22011;59.912;30.300;2023-01-26T06:31:09;4.90;;;2.65;;
35917;SDS011;22011;59.912;30.300;2023-01-26T06:33:38;4.00;;;2.47;;
35917;SDS011;22011;59.912;30.300;2023-01-26T06:36:08;3.50;;;2.40;;
35917;SDS011;22011;59.912;30.300;2023-01-26T06:38:38;3.33;;;2.42;;
35917;SDS011;22011;59.912;30.300;2023-01-26T06:41:10;4.82;;;2.65;;
35917;SDS011;22011;59.912;30.300;2023-01-26T06:43:39;9.60;;;2.85;;
35917;SDS011;22011;59.912;30.300;2023-01-26T06:46:12;6.10;;;2.50;;
35917;SDS011;22011;59.912;30.300;2023-01-26T06:48:42;3.97;;;2.60;;
35917;SDS011;22011;59.912;30.300;2023-01-26T06:54:12;4.13;;;2.97;;
35917;SDS011;22011;59.912;30.300;2023-01-26T06:56:59;8.57;;;3.35;;
35917;SDS011;22011;59.912;30.300;2023-01-26T06:59:46;8.50;;;3.67;;
35917;SDS011;22011;59.912;30.300;2023-01-26T07:02:32;8.45;;;3.78;;
35917;SDS011;22011;59.912;30.300;2023-01-26T07:04:59;6.38;;;3.17;;
35917;SDS011;22011;59.912;30.300;2023-01-26T07:07:27;9.70;;;3.20;;
35917;SDS011;22011;59.912;30.300;2023-01-26T07:09:54;4.63;;;3.25;;
35917;SDS011;22011;59.912;30.300;2023-01-26T07:12:22;9.65;;;4.30;;
35917;SDS011;22011;59.912;30.300;2023-01-26T07:14:51;5.35;;;3.10;;
35917;SDS011;22011;59.912;30.300;2023-01-26T07:17:18;7.57;;;2.97;;
35917;SDS011;22011;59.912;30.300;2023-01-26T07:19:46;6.03;;;3.40;;
35917;SDS011;22011;59.912;30.300;2023-01-26T07:22:13;5.45;;;2.92;;
35917;SDS011;22011;59.912;30.300;2023-01-26T07:24:41;7.05;;;3.28;;
35917;SDS011;22011;59.912;30.300;2023-01-26T07:27:08;11.73;;;3.13;;
35917;SDS011;22011;59.912;30.300;2023-01-26T07:29:36;9.90;;;3.22;;
35917;SDS011;22011;59.912;30.300;2023-01-26T07:32:05;6.10;;;2.90;;
35917;SDS011;22011;59.912;30.300;2023-01-26T07:34:32;5.97;;;2.75;;
35917;SDS011;22011;59.912;30.300;2023-01-26T07:37:01;5.20;;;2.70;;
35917;SDS011;22011;59.912;30.300;2023-01-26T07:39:30;4.75;;;2.90;;
35917;SDS011;22011;59.912;30.300;2023-01-26T07:41:57;9.10;;;3.03;;
35917;SDS011;22011;59.912;30.300;2023-01-26T07:44:38;5.20;;;2.97;;
35917;SDS011;22011;59.912;30.300;2023-01-26T07:47:07;9.05;;;2.72;;
35917;SDS011;22011;59.912;30.300;2023-01-26T07:49:34;5.60;;;3.03;;
35917;SDS011;22011;59.912;30.300;2023-01-26T07:52:02;4.28;;;2.33;;
35917;SDS011;22011;59.912;30.300;2023-01-26T07:54:30;4.57;;;2.35;;
35917;SDS011;22011;59.912;30.300;2023-01-26T07:56:58;5.53;;;3.15;;
35917;SDS011;22011;59.912;30.300;2023-01-26T07:59:25;4.03;;;2.40;;
35917;SDS011;22011;59.912;30.300;2023-01-26T08:01:53;13.38;;;2.95;;
35917;SDS011;22011;59.912;30.300;2023-01-26T08:04:22;8.90;;;2.65;;
35917;SDS011;22011;59.912;30.300;2023-01-26T08:06:49;6.15;;;2.78;;
35917;SDS011;22011;59.912;30.300;2023-01-26T08:09:17;7.38;;;2.72;;
35917;SDS011;22011;59.912;30.300;2023-01-26T08:11:45;4.97;;;2.63;;
35917;SDS011;22011;59.912;30.300;2023-01-26T08:14:12;4.50;;;2.63;;
35917;SDS011;22011;59.912;30.300;2023-01-26T08:16:40;4.20;;;2.60;;
35917;SDS011;22011;59.912;30.300;2023-01-26T08:19:07;7.20;;;3.15;;
35917;SDS011;22011;59.912;30.300;2023-01-26T08:21:36;6.88;;;2.47;;
35917;SDS011;22011;59.912;30.300;2023-01-26T08:24:04;5.72;;;2.40;;
35917;SDS011;22011;59.912;30.300;2023-01-26T08:26:32;3.85;;;2.75;;
35917;SDS011;22011;59.912;30.300;2023-01-26T08:28:59;3.55;;;2.25;;
35917;SDS011;22011;59.912;30.300;2023-01-26T08:31:27;4.80;;;2.70;;
35917;SDS011;22011;59.912;30.300;2023-01-26T08:33:54;4.22;;;2.38;;
35917;SDS011;22011;59.912;30.300;2023-01-26T08:36:22;5.20;;;3.30;;
35917;SDS011;22011;59.912;30.300;2023-01-26T08:38:52;4.70;;;3.50;;
35917;SDS011;22011;59.912;30.300;2023-01-26T08:41:20;6.75;;;2.95;;
35917;SDS011;22011;59.912;30.300;2023-01-26T08:43:48;7.88;;;3.53;;
35917;SDS011;22011;59.912;30.300;2023-01-26T08:46:17;7.20;;;4.15;;
35917;SDS011;22011;59.912;30.300;2023-01-26T08:48:45;6.18;;;3.42;;
35917;SDS011;22011;59.912;30.300;2023-01-26T08:51:12;7.72;;;3.50;;
35917;SDS011;22011;59.912;30.300;2023-01-26T08:53:40;6.18;;;3.28;;
35917;SDS011;22011;59.912;30.300;2023-01-26T08:56:09;8.88;;;4.05;;
35917;SDS011;22011;59.912;30.300;2023-01-26T08:58:38;5.55;;;2.92;;
35917;SDS011;22011;59.912;30.300;2023-01-26T09:01:06;7.70;;;3.63;;
35917;SDS011;22011;59.912;30.300;2023-01-26T09:03:34;7.80;;;3.60;;
35917;SDS011;22011;59.912;30.300;2023-01-26T09:06:02;6.72;;;3.85;;
35917;SDS011;22011;59.912;30.300;2023-01-26T09:08:31;4.95;;;3.10;;
35917;SDS011;22011;59.912;30.300;2023-01-26T09:10:59;5.80;;;3.17;;
35917;SDS011;22011;59.912;30.300;2023-01-26T09:13:28;6.28;;;3.22;;
35917;SDS011;22011;59.912;30.300;2023-01-26T09:15:56;7.13;;;2.90;;
35917;SDS011;22011;59.912;30.300;2023-01-26T09:18:23;4.22;;;2.50;;
35917;SDS011;22011;59.912;30.300;2023-01-26T09:20:51;3.90;;;2.50;;
35917;SDS011;22011;59.912;30.300;2023-01-26T09:23:20;4.27;;;2.50;;
35917;SDS011;22011;59.912;30.300;2023-01-26T09:25:51;4.25;;;2.35;;
35917;SDS011;22011;59.912;30.300;2023-01-26T09:28:19;5.15;;;3.03;;
35917;SDS011;22011;59.912;30.300;2023-01-26T09:30:48;4.15;;;2.63;;
35917;SDS011;22011;59.912;30.300;2023-01-26T09:33:15;3.60;;;2.75;;
35917;SDS011;22011;59.912;30.300;2023-01-26T09:35:43;3.13;;;2.65;;
35917;SDS011;22011;59.912;30.300;2023-01-26T09:38:10;7.95;;;3.08;;
35917;SDS011;22011;59.912;30.300;2023-01-26T09:40:39;5.45;;;2.90;;
35917;SDS011;22011;59.912;30.300;2023-01-26T09:43:19;4.30;;;2.72;;
35917;SDS011;22011;59.912;30.300;2023-01-26T09:45:57;5.18;;;3.08;;
35917;SDS011;22011;59.912;30.300;2023-01-26T09:48:34;3.92;;;2.58;;
35917;SDS011;22011;59.912;30.300;2023-01-26T09:51:09;4.65;;;2.88;;
35917;SDS011;22011;59.912;30.300;2023-01-26T09:53:44;4.82;;;3.03;;
35917;SDS011;22011;59.912;30.300;2023-01-26T09:56:19;4.68;;;3.00;;
35917;SDS011;22011;59.912;30.300;2023-01-26T09:58:52;4.97;;;3.33;;
35917;SDS011;22011;59.912;30.300;2023-01-26T10:01:27;5.25;;;3.38;;
35917;SDS011;22011;59.912;30.300;2023-01-26T10:04:03;7.43;;;3.90;;
35917;SDS011;22011;59.912;30.300;2023-01-26T10:06:39;9.55;;;4.22;;
35917;SDS011;22011;59.912;30.300;2023-01-26T10:09:13;8.65;;;4.03;;
35917;SDS011;22011;59.912;30.300;2023-01-26T10:11:43;9.27;;;3.72;;
35917;SDS011;22011;59.912;30.300;2023-01-26T10:14:16;9.23;;;4.85;;
35917;SDS011;22011;59.912;30.300;2023-01-26T10:16:48;6.40;;;3.70;;
35917;SDS011;22011;59.912;30.300;2023-01-26T10:19:21;6.07;;;4.13;;
35917;SDS011;22011;59.912;30.300;2023-01-26T10:21:59;7.03;;;4.25;;
35917;SDS011;22011;59.912;30.300;2023-01-26T10:24:32;6.93;;;4.35;;
35917;SDS011;22011;59.912;30.300;2023-01-26T10:26:59;4.68;;;3.65;;
35917;SDS011;22011;59.912;30.300;2023-01-26T10:29:27;7.70;;;3.85;;
35917;SDS011;22011;59.912;30.300;2023-01-26T10:31:55;6.90;;;3.72;;
35917;SDS011;22011;59.912;30.300;2023-01-26T10:34:23;6.47;;;3.75;;
35917;SDS011;22011;59.912;30.300;2023-01-26T10:36:57;6.90;;;4.20;;
35917;SDS011;22011;59.912;30.300;2023-01-26T10:39:39;7.00;;;3.90;;
35917;SDS011;22011;59.912;30.300;2023-01-26T10:42:23;4.78;;;3.50;;
35917;SDS011;22011;59.912;30.300;2023-01-26T10:44:54;5.60;;;3.60;;
35917;SDS011;22011;59.912;30.300;2023-01-26T10:47:25;7.78;;;3.65;;
35917;SDS011;22011;59.912;30.300;2023-01-26T10:49:52;7.45;;;3.58;;
35917;SDS011;22011;59.912;30.300;2023-01-26T10:52:55;5.32;;;3.42;;
35917;SDS011;22011;59.912;30.300;2023-01-26T10:55:24;6.80;;;3.47;;
35917;SDS011;22011;59.912;30.300;2023-01-26T10:57:51;7.50;;;3.80;;
35917;SDS011;22011;59.912;30.300;2023-01-26T11:00:21;8.25;;;4.10;;
35917;SDS011;22011;59.912;30.300;2023-01-26T11:02:57;13.25;;;4.13;;
35917;SDS011;22011;59.912;30.300;2023-01-26T11:05:30;7.57;;;4.03;;
35917;SDS011;22011;59.912;30.300;2023-01-26T11:07:58;7.28;;;4.28;;
35917;SDS011;22011;59.912;30.300;2023-01-26T11:10:29;7.65;;;3.70;;
35917;SDS011;22011;59.912;30.300;2023-01-26T11:15:49;5.38;;;3.55;;
35917;SDS011;22011;59.912;30.300;2023-01-26T11:18:31;10.07;;;3.63;;
35917;SDS011;22011;59.912;30.300;2023-01-26T11:21:08;6.35;;;3.17;;
35917;SDS011;22011;59.912;30.300;2023-01-26T11:23:47;8.90;;;4.68;;
35917;SDS011;22011;59.912;30.300;2023-01-26T11:29:40;6.65;;;3.70;;
35917;SDS011;22011;59.912;30.300;2023-01-26T11:32:25;6.97;;;3.25;;
35917;SDS011;22011;59.912;30.300;2023-01-26T11:35:06;4.72;;;3.08;;
35917;SDS011;22011;59.912;30.300;2023-01-26T11:37:41;6.20;;;2.85;;
35917;SDS011;22011;59.912;30.300;2023-01-26T11:40:20;8.95;;;3.50;;
35917;SDS011;22011;59.912;30.300;2023-01-26T11:42:55;4.80;;;2.95;;
35917;SDS011;22011;59.912;30.300;2023-01-26T11:45:35;4.55;;;2.40;;
35917;SDS011;22011;59.912;30.300;2023-01-26T11:48:13;4.20;;;2.88;;
35917;SDS011;22011;59.912;30.300;2023-01-26T11:50:53;10.23;;;2.88;;
35917;SDS011;22011;59.912;30.300;2023-01-26T11:53:30;9.15;;;2.85;;
35917;SDS011;22011;59.912;30.300;2023-01-26T11:56:13;8.00;;;3.05;;
35917;SDS011;22011;59.912;30.300;2023-01-26T12:03:54;6.25;;;2.95;;
35917;SDS011;22011;59.912;30.300;2023-01-26T12:06:26;4.57;;;2.67;;
35917;SDS011;22011;59.912;30.300;2023-01-26T12:09:01;5.80;;;3.15;;
35917;SDS011;22011;59.912;30.300;2023-01-26T12:11:32;6.85;;;3.13;;
35917;SDS011;22011;59.912;30.300;2023-01-26T12:14:06;14.23;;;3.53;;
35917;SDS011;22011;59.912;30.300;2023-01-26T12:16:48;6.20;;;3.58;;
35917;SDS011;22011;59.912;30.300;2023-01-26T12:19:29;12.13;;;3.72;;
35917;SDS011;22011;59.912;30.300;2023-01-26T12:22:09;5.05;;;2.95;;
35917;SDS011;22011;59.912;30.300;2023-01-26T12:24:42;4.40;;;3.08;;
35917;SDS011;22011;59.912;30.300;2023-01-26T12:27:15;6.32;;;3.17;;
35917;SDS011;22011;59.912;30.300;2023-01-26T12:29:48;8.02;;;2.67;;
35917;SDS011;22011;59.912;30.300;2023-01-26T12:32:20;5.60;;;2.47;;
35917;SDS011;22011;59.912;30.300;2023-01-26T12:34:49;5.72;;;2.70;;
35917;SDS011;22011;59.912;30.300;2023-01-26T12:37:23;4.47;;;2.33;;
35917;SDS011;22011;59.912;30.300;2023-01-26T12:40:11;5.05;;;2.40;;
35917;SDS011;22011;59.912;30.300;2023-01-26T12:42:51;5.43;;;2.92;;
35917;SDS011;22011;59.912;30.300;2023-01-26T12:45:29;4.90;;;2.17;;
35917;SDS011;22011;59.912;30.300;2023-01-26T12:48:03;6.50;;;2.30;;
35917;SDS011;22011;59.912;30.300;2023-01-26T12:50:38;3.80;;;2.00;;
35917;SDS011;22011;59.912;30.300;2023-01-26T12:53:13;4.68;;;2.25;;
35917;SDS011;22011;59.912;30.300;2023-01-26T12:55:46;3.25;;;2.17;;
35917;SDS011;22011;59.912;30.300;2023-01-26T12:58:18;4.18;;;2.60;;
35917;SDS011;22011;59.912;30.300;2023-01-26T13:00:55;4.78;;;1.98;;
35917;SDS011;22011;59.912;30.300;2023-01-26T13:03:27;4.63;;;2.50;;
35917;SDS011;22011;59.912;30.300;2023-01-26T13:05:59;4.28;;;2.53;;
35917;SDS011;22011;59.912;30.300;2023-01-26T13:08:49;6.28;;;2.42;;
35917;SDS011;22011;59.912;30.300;2023-01-26T13:16:57;10.70;;;4.85;;
35917;SDS011;22011;59.912;30.300;2023-01-26T13:20:14;3.67;;;2.00;;
35917;SDS011;22011;59.912;30.300;2023-01-26T13:22:49;4.25;;;2.35;;
35917;SDS011;22011;59.912;30.300;2023-01-26T13:25:19;4.90;;;1.75;;
35917;SDS011;22011;59.912;30.300;2023-01-26T13:27:56;6.47;;;1.88;;
35917;SDS011;22011;59.912;30.300;2023-01-26T13:30:27;4.60;;;1.55;;
35917;SDS011;22011;59.912;30.300;2023-01-26T13:33:20;10.20;;;3.60;;
35917;SDS011;22011;59.912;30.300;2023-01-26T13:35:49;4.28;;;1.85;;
35917;SDS011;22011;59.912;30.300;2023-01-26T13:38:22;7.07;;;1.73;;
35917;SDS011;22011;59.912;30.300;2023-01-26T13:40:56;2.45;;;1.40;;
35917;SDS011;22011;59.912;30.300;2023-01-26T13:43:26;4.68;;;1.77;;
35917;SDS011;22011;59.912;30.300;2023-01-26T13:46:02;3.60;;;1.30;;
35917;SDS011;22011;59.912;30.300;2023-01-26T13:48:40;5.75;;;1.73;;
35917;SDS011;22011;59.912;30.300;2023-01-26T13:51:14;3.60;;;1.40;;
35917;SDS011;22011;59.912;30.300;2023-01-26T13:53:48;5.63;;;1.77;;
35917;SDS011;22011;59.912;30.300;2023-01-26T13:56:23;6.43;;;2.63;;
35917;SDS011;22011;59.912;30.300;2023-01-26T13:59:01;1.70;;;1.02;;
35917;SDS011;22011;59.912;30.300;2023-01-26T14:01:31;5.13;;;1.60;;
35917;SDS011;22011;59.912;30.300;2023-01-26T14:04:02;3.72;;;1.25;;
35917;SDS011;22011;59.912;30.300;2023-01-26T14:06:30;2.13;;;1.52;;
35917;SDS011;22011;59.912;30.300;2023-01-26T14:08:59;4.40;;;1.60;;
35917;SDS011;22011;59.912;30.300;2023-01-26T14:11:28;2.55;;;1.33;;
35917;SDS011;22011;59.912;30.300;2023-01-26T14:13:59;3.67;;;1.40;;
35917;SDS011;22011;59.912;30.300;2023-01-26T14:16:29;4.03;;;2.00;;
35917;SDS011;22011;59.912;30.300;2023-01-26T14:19:04;7.53;;;2.13;;
35917;SDS011;22011;59.912;30.300;2023-01-26T14:21:46;6.53;;;2.50;;
35917;SDS011;22011;59.912;30.300;2023-01-26T14:24:15;10.77;;;3.08;;
35917;SDS011;22011;59.912;30.300;2023-01-26T14:26:44;4.93;;;2.47;;
35917;SDS011;22011;59.912;30.300;2023-01-26T14:29:17;5.95;;;3.15;;
35917;SDS011;22011;59.912;30.300;2023-01-26T14:31:47;8.60;;;3.28;;
35917;SDS011;22011;59.912;30.300;2023-01-26T14:34:18;6.43;;;3.35;;
35917;SDS011;22011;59.912;30.300;2023-01-26T14:36:47;11.48;;;3.50;;
35917;SDS011;22011;59.912;30.300;2023-01-26T14:39:30;9.73;;;3.28;;
35917;SDS011;22011;59.912;30.300;2023-01-26T14:41:59;7.65;;;2.88;;
35917;SDS011;22011;59.912;30.300;2023-01-26T14:44:27;6.07;;;1.85;;
35917;SDS011;22011;59.912;30.300;2023-01-26T14:46:55;9.18;;;2.22;;
35917;SDS011;22011;59.912;30.300;2023-01-26T14:49:32;5.32;;;1.85;;
35917;SDS011;22011;59.912;30.300;2023-01-26T14:52:16;4.40;;;2.10;;
35917;SDS011;22011;59.912;30.300;2023-01-26T14:57:19;3.78;;;1.88;;
35917;SDS011;22011;59.912;30.300;2023-01-26T14:59:49;2.67;;;1.60;;
35917;SDS011;22011;59.912;30.300;2023-01-26T15:02:20;4.82;;;1.67;;
35917;SDS011;22011;59.912;30.300;2023-01-26T15:04:50;2.65;;;1.50;;
35917;SDS011;22011;59.912;30.300;2023-01-26T15:07:34;5.00;;;2.45;;
35917;SDS011;22011;59.912;30.300;2023-01-26T15:12:58;2.78;;;1.58;;
35917;SDS011;22011;59.912;30.300;2023-01-26T15:15:28;2.92;;;1.50;;
35917;SDS011;22011;59.912;30.300;2023-01-26T15:18:01;2.85;;;1.63;;
35917;SDS011;22011;59.912;30.300;2023-01-26T15:20:36;3.67;;;1.33;;
35917;SDS011;22011;59.912;30.300;2023-01-26T15:23:16;3.90;;;2.15;;
35917;SDS011;22011;59.912;30.300;2023-01-26T15:25:48;2.83;;;2.13;;
35917;SDS011;22011;59.912;30.300;2023-01-26T15:28:17;2.47;;;1.88;;
35917;SDS011;22011;59.912;30.300;2023-01-26T15:30:48;3.30;;;1.65;;
35917;SDS011;22011;59.912;30.300;2023-01-26T15:33:40;5.93;;;1.63;;
35917;SDS011;22011;59.912;30.300;2023-01-26T15:39:13;4.00;;;1.73;;
35917;SDS011;22011;59.912;30.300;2023-01-26T15:41:42;2.97;;;1.67;;